Time;durP1;ratioP1;P1;durP2;ratioP2;P2;SDS_P1;SDS_P2;PMS_P1;PMS_P2;Temp;Humidity;BMP_temperature;BMP_pressure;BME280_temperature;BME280_humidity;BME280_pressure;Samples;Min_cycle;Max_cycle;Signal;HPM_P1;HPM_P2
2022/04/07 00:00:19;;;;;;;20.73;19.73;;;11.50;87.00;;;;;;5091704;28;20549;-74
2022/04/07 00:02:47;;;;;;;20.13;19.13;;;11.40;87.10;;;;;;5092342;28;21033;-74
2022/04/07 00:05:14;;;;;;;19.73;18.83;;;11.40;87.40;;;;;;5096418;28;20488;-74
2022/04/07 00:07:41;;;;;;;19.33;18.43;;;11.40;87.60;;;;;;5095776;28;20473;-73
2022/04/07 00:10:08;;;;;;;19.53;18.53;;;11.30;87.60;;;;;;5096029;28;20889;-72
2022/04/07 00:12:37;;;;;;;19.10;18.20;;;11.30;87.80;;;;;;5096216;28;20651;-72
2022/04/07 00:15:05;;;;;;;19.03;18.10;;;11.30;87.90;;;;;;5096565;28;20460;-72
2022/04/07 00:17:32;;;;;;;19.80;18.90;;;11.30;87.80;;;;;;5096624;28;20446;-72
2022/04/07 00:19:59;;;;;;;19.20;18.30;;;11.20;87.70;;;;;;5095855;28;20453;-72
2022/04/07 00:22:26;;;;;;;20.00;19.10;;;11.20;87.50;;;;;;5096363;28;20919;-72
2022/04/07 00:24:53;;;;;;;20.43;19.43;;;11.20;87.60;;;;;;5095968;28;20536;-72
2022/04/07 00:27:20;;;;;;;19.63;18.57;;;11.20;87.50;;;;;;5096214;28;20469;-72
2022/04/07 00:29:47;;;;;;;19.30;18.30;;;11.10;87.50;;;;;;5096959;28;20529;-72
2022/04/07 00:32:15;;;;;;;19.40;18.40;;;11.20;86.90;;;;;;5097744;28;20453;-72
2022/04/07 00:34:46;;;;;;;19.80;18.80;;;11.20;86.80;;;;;;5097147;28;20796;-72
2022/04/07 00:37:12;;;;;;;19.47;18.57;;;11.20;87.00;;;;;;5096507;28;20446;-72
2022/04/07 00:39:39;;;;;;;19.60;18.70;;;11.10;87.10;;;;;;5095324;28;20823;-72
2022/04/07 00:42:07;;;;;;;18.77;17.87;;;11.10;87.10;;;;;;5095773;28;20532;-72
2022/04/07 00:44:34;;;;;;;19.27;18.37;;;11.20;87.20;;;;;;5095677;28;20540;-72
2022/04/07 00:47:00;;;;;;;19.43;18.40;;;11.20;87.00;;;;;;5095504;28;20807;-73
2022/04/07 00:49:29;;;;;;;18.87;17.97;;;11.20;86.90;;;;;;5095000;28;20479;-72
2022/04/07 00:51:56;;;;;;;19.10;18.20;;;11.30;86.70;;;;;;5095597;28;20445;-72
2022/04/07 00:54:22;;;;;;;19.10;18.20;;;11.20;87.00;;;;;;5095743;28;20454;-72
2022/04/07 00:56:49;;;;;;;19.10;18.20;;;11.30;87.00;;;;;;5095471;28;20943;-72
2022/04/07 00:59:18;;;;;;;19.07;18.17;;;11.30;86.70;;;;;;5094874;28;20491;-72
2022/04/07 01:01:46;;;;;;;19.00;18.10;;;11.30;86.50;;;;;;5095330;28;20481;-72
2022/04/07 01:04:12;;;;;;;19.17;18.27;;;11.40;86.50;;;;;;5095359;28;20528;-72
2022/04/07 01:06:43;;;;;;;19.10;18.20;;;11.30;86.50;;;;;;5094729;28;20476;-73
2022/04/07 01:09:10;;;;;;;18.83;17.90;;;11.30;86.80;;;;;;5094610;28;20576;-72
2022/04/07 01:11:38;;;;;;;19.60;18.70;;;11.30;87.00;;;;;;5094986;28;20449;-72
2022/04/07 01:14:06;;;;;;;19.20;18.30;;;11.30;86.90;;;;;;5094957;28;20477;-72
2022/04/07 01:16:34;;;;;;;19.00;18.13;;;11.40;86.80;;;;;;5094942;28;20528;-72
2022/04/07 01:19:02;;;;;;;19.30;18.40;;;11.30;87.20;;;;;;5095054;28;20468;-72
2022/04/07 01:21:31;;;;;;;19.37;18.47;;;11.30;87.10;;;;;;5094469;28;21021;-72
2022/04/07 01:24:03;;;;;;;19.87;18.90;;;11.40;86.60;;;;;;5094912;28;20469;-72
2022/04/07 01:26:37;;;;;;;19.53;18.63;;;11.40;86.70;;;;;;5094990;28;20449;-72
2022/04/07 01:29:04;;;;;;;19.43;18.53;;;11.30;87.10;;;;;;5094536;28;21076;-72
2022/04/07 01:31:32;;;;;;;19.50;18.50;;;11.30;87.10;;;;;;5094579;28;20453;-72
2022/04/07 01:34:01;;;;;;;18.90;18.00;;;11.40;87.20;;;;;;5094643;28;20470;-72
2022/04/07 01:36:30;;;;;;;19.23;18.33;;;11.40;87.60;;;;;;5094708;28;20456;-73
2022/04/07 01:38:59;;;;;;;19.50;18.50;;;11.30;87.30;;;;;;5094396;28;20811;-72
2022/04/07 01:41:27;;;;;;;20.00;18.80;;;11.20;87.30;;;;;;5094152;28;20461;-72
2022/04/07 01:43:58;;;;;;;19.50;18.60;;;11.20;87.20;;;;;;5094620;28;20527;-72
2022/04/07 01:46:26;;;;;;;18.77;17.87;;;11.10;87.30;;;;;;5097719;22;20482;-72
2022/04/07 01:48:54;;;;;;;19.10;18.20;;;11.10;87.40;;;;;;5073448;28;20998;-72
2022/04/07 01:51:24;;;;;;;19.90;18.90;;;11.10;87.30;;;;;;5073568;28;20460;-72
2022/04/07 01:53:51;;;;;;;18.60;17.73;;;11.10;87.20;;;;;;5090172;28;20470;-72
2022/04/07 01:56:20;;;;;;;19.20;18.20;;;11.10;87.40;;;;;;5094352;28;20457;-72
2022/04/07 01:58:48;;;;;;;18.80;17.90;;;11.00;87.10;;;;;;5094051;28;20457;-72
2022/04/07 02:01:17;;;;;;;18.97;18.07;;;11.00;86.30;;;;;;5093723;28;20512;-72
2022/04/07 02:03:45;;;;;;;18.93;18.03;;;11.00;86.50;;;;;;5094277;28;20818;-72
2022/04/07 02:06:13;;;;;;;19.37;18.47;;;11.00;87.00;;;;;;5094292;28;20548;-72
2022/04/07 02:08:40;;;;;;;19.60;18.70;;;11.10;86.60;;;;;;5094208;28;20505;-72
2022/04/07 02:11:10;;;;;;;19.93;18.93;;;11.10;86.80;;;;;;5093281;28;20485;-72
2022/04/07 02:13:39;;;;;;;19.80;18.80;;;11.10;87.00;;;;;;5093970;28;20527;-72
2022/04/07 02:16:06;;;;;;;19.03;18.13;;;11.10;87.10;;;;;;5094117;28;20570;-72
2022/04/07 02:18:35;;;;;;;18.57;17.77;;;11.10;87.20;;;;;;5093929;28;20453;-72
2022/04/07 02:21:02;;;;;;;19.13;18.23;;;11.10;87.10;;;;;;5093413;28;20450;-72
2022/04/07 02:23:29;;;;;;;19.20;18.30;;;11.20;86.50;;;;;;5093765;28;20477;-72
2022/04/07 02:25:56;;;;;;;19.30;18.40;;;11.20;86.40;;;;;;5093103;28;20497;-73
2022/04/07 02:28:23;;;;;;;19.80;18.80;;;11.10;86.50;;;;;;5093924;28;21008;-72
2022/04/07 02:30:50;;;;;;;19.63;18.63;;;11.00;86.60;;;;;;5093208;28;20460;-72
2022/04/07 02:33:17;;;;;;;19.67;18.67;;;11.10;86.50;;;;;;5093523;28;20997;-72
2022/04/07 02:35:45;;;;;;;20.30;19.30;;;11.10;86.60;;;;;;5093515;28;20449;-72
2022/04/07 02:38:12;;;;;;;20.13;19.13;;;11.10;86.60;;;;;;5093528;28;20477;-72
2022/04/07 02:40:39;;;;;;;18.90;17.93;;;11.10;86.60;;;;;;5092882;28;20457;-72
2022/04/07 02:43:06;;;;;;;18.83;17.93;;;11.10;86.30;;;;;;5093632;28;20474;-72
2022/04/07 02:45:33;;;;;;;18.97;18.07;;;11.10;86.00;;;;;;5093190;28;20946;-72
2022/04/07 02:48:00;;;;;;;19.83;18.90;;;11.10;85.70;;;;;;5093366;28;20517;-72
2022/04/07 02:50:27;;;;;;;20.50;19.50;;;11.10;85.60;;;;;;5092746;28;20452;-72
2022/04/07 02:52:55;;;;;;;19.30;18.40;;;11.00;85.60;;;;;;5093207;28;20591;-72
2022/04/07 02:55:24;;;;;;;22.10;21.03;;;11.00;85.50;;;;;;5093054;28;20449;-72
2022/04/07 02:57:51;;;;;;;19.90;18.90;;;11.10;85.40;;;;;;5093183;28;20541;-72
2022/04/07 03:00:18;;;;;;;20.17;19.17;;;11.00;85.00;;;;;;5092537;28;20442;-72
2022/04/07 03:02:45;;;;;;;19.90;18.97;;;11.00;85.20;;;;;;5093341;28;20546;-72
2022/04/07 03:05:12;;;;;;;20.97;19.87;;;11.00;84.50;;;;;;5092905;28;20977;-73
2022/04/07 03:07:39;;;;;;;20.57;19.57;;;11.10;82.90;;;;;;5092392;28;20557;-72
2022/04/07 03:10:08;;;;;;;20.93;19.93;;;11.00;81.80;;;;;;5092389;28;20537;-72
2022/04/07 03:12:38;;;;;;;22.47;21.10;;;10.90;81.90;;;;;;5092758;28;20461;-72
2022/04/07 03:15:06;;;;;;;20.40;19.40;;;10.90;81.80;;;;;;5093093;28;20454;-72
2022/04/07 03:17:34;;;;;;;21.20;20.20;;;10.90;81.60;;;;;;5092706;28;20457;-72
2022/04/07 03:20:01;;;;;;;21.13;20.13;;;10.90;81.30;;;;;;5092118;28;20446;-72
2022/04/07 03:22:28;;;;;;;21.27;20.17;;;10.90;81.20;;;;;;5092696;28;20476;-72
2022/04/07 03:24:55;;;;;;;21.73;20.63;;;10.80;81.40;;;;;;5092698;28;20771;-72
2022/04/07 03:27:23;;;;;;;21.30;20.23;;;10.90;81.10;;;;;;5092657;28;20946;-72
2022/04/07 03:29:50;;;;;;;20.07;19.07;;;10.80;81.10;;;;;;5092087;28;20997;-72
2022/04/07 03:32:17;;;;;;;22.20;21.00;;;10.80;81.30;;;;;;5092420;28;20515;-72
2022/04/07 03:34:44;;;;;;;22.20;21.10;;;10.90;80.70;;;;;;5092350;28;20454;-72
2022/04/07 03:37:14;;;;;;;20.50;19.50;;;10.90;80.70;;;;;;5092042;28;20457;-72
2022/04/07 03:39:41;;;;;;;23.67;22.47;;;10.90;80.30;;;;;;5091618;28;20458;-72
2022/04/07 03:42:08;;;;;;;21.60;20.50;;;10.90;80.10;;;;;;5092443;28;20456;-72
2022/04/07 03:44:36;;;;;;;23.90;22.70;;;10.90;80.80;;;;;;5092573;28;20533;-72
2022/04/07 03:47:04;;;;;;;20.37;19.40;;;10.90;80.60;;;;;;5092096;28;20469;-72
2022/04/07 03:49:30;;;;;;;20.17;19.17;;;11.00;80.50;;;;;;5091865;28;20481;-72
2022/04/07 03:51:57;;;;;;;21.00;19.90;;;11.00;80.60;;;;;;5092285;28;20486;-72
2022/04/07 03:54:24;;;;;;;22.13;21.03;;;10.90;80.60;;;;;;5092536;28;20537;-72
2022/04/07 03:56:51;;;;;;;22.70;21.60;;;10.90;81.00;;;;;;5092218;28;20476;-72
2022/04/07 03:59:18;;;;;;;21.20;20.10;;;10.90;80.90;;;;;;5091578;28;20532;-72
2022/04/07 04:01:47;;;;;;;21.43;20.33;;;10.80;81.00;;;;;;5092118;28;20456;-72
2022/04/07 04:04:15;;;;;;;21.47;20.37;;;10.90;80.90;;;;;;5092086;28;20473;-72
2022/04/07 04:06:42;;;;;;;21.47;20.37;;;10.90;80.50;;;;;;5091997;28;20546;-73
2022/04/07 04:09:09;;;;;;;22.20;21.00;;;10.90;80.60;;;;;;5091749;28;20511;-73
2022/04/07 04:11:35;;;;;;;22.40;21.20;;;10.90;80.70;;;;;;5092511;28;20476;-73
2022/04/07 04:14:03;;;;;;;21.43;20.33;;;10.90;80.30;;;;;;5092468;28;20487;-73
2022/04/07 04:16:31;;;;;;;21.93;20.83;;;10.90;80.10;;;;;;5092290;28;20974;-73
2022/04/07 04:18:59;;;;;;;21.43;20.23;;;11.00;80.30;;;;;;5092095;28;20450;-73
2022/04/07 04:21:26;;;;;;;21.07;19.97;;;10.80;80.70;;;;;;5091828;28;20451;-73
2022/04/07 04:23:53;;;;;;;20.97;19.87;;;10.80;80.80;;;;;;5092146;28;20470;-73
2022/04/07 04:26:20;;;;;;;23.75;22.55;;;10.80;80.70;;;;;;5092083;28;20460;-73
2022/04/07 04:28:47;;;;;;;21.67;20.37;;;10.80;80.70;;;;;;5091752;28;20223;-73
2022/04/07 04:31:13;;;;;;;22.83;21.53;;;10.70;81.10;;;;;;5091460;28;20460;-73
2022/04/07 04:33:40;;;;;;;22.53;21.43;;;10.70;80.80;;;;;;5091862;28;20551;-73
2022/04/07 04:36:09;;;;;;;21.93;20.83;;;10.70;80.60;;;;;;5091846;28;20880;-73
2022/04/07 04:38:36;;;;;;;23.40;22.10;;;10.70;80.70;;;;;;5091873;28;20454;-73
2022/04/07 04:41:03;;;;;;;22.03;20.93;;;10.80;80.30;;;;;;5091185;28;20492;-73
2022/04/07 04:43:30;;;;;;;20.77;19.70;;;10.80;80.10;;;;;;5091724;28;20560;-73
2022/04/07 04:45:56;;;;;;;20.57;19.57;;;10.80;79.90;;;;;;5091730;28;20536;-73
2022/04/07 04:48:23;;;;;;;21.87;20.50;;;10.80;79.80;;;;;;5091736;28;20560;-73
2022/04/07 04:50:50;;;;;;;21.83;20.63;;;10.80;79.90;;;;;;5094567;28;20461;-73
2022/04/07 04:53:18;;;;;;;22.50;21.30;;;10.80;79.70;;;;;;5095544;28;20903;-73
2022/04/07 04:55:45;;;;;;;23.60;22.50;;;10.80;79.70;;;;;;5095556;28;20537;-73
2022/04/07 04:58:12;;;;;;;21.43;20.37;;;10.80;79.40;;;;;;5095292;28;20454;-73
2022/04/07 05:00:39;;;;;;;22.97;21.77;;;10.90;79.20;;;;;;5094900;28;20449;-73
2022/04/07 05:03:06;;;;;;;21.20;20.13;;;10.90;78.80;;;;;;5095336;28;20556;-73
2022/04/07 05:05:33;;;;;;;24.10;22.90;;;10.90;78.90;;;;;;5095431;28;20453;-73
2022/04/07 05:08:00;;;;;;;21.33;20.23;;;10.90;78.70;;;;;;5094666;28;20469;-73
2022/04/07 05:10:28;;;;;;;23.77;22.67;;;11.00;78.70;;;;;;5094386;28;21016;-73
2022/04/07 05:12:55;;;;;;;21.10;20.10;;;11.00;78.80;;;;;;5095238;28;20491;-73
2022/04/07 05:15:22;;;;;;;22.93;21.83;;;11.00;78.50;;;;;;5095103;28;20855;-73
2022/04/07 05:17:50;;;;;;;21.03;20.00;;;11.10;78.60;;;;;;5095142;28;20541;-73
2022/04/07 05:20:17;;;;;;;21.73;20.63;;;11.10;78.70;;;;;;5094436;28;20453;-73
2022/04/07 05:22:44;;;;;;;21.50;20.10;;;11.00;79.30;;;;;;5094916;28;20560;-73
2022/04/07 05:25:11;;;;;;;22.80;21.60;;;11.10;79.10;;;;;;5094994;28;20464;-73
2022/04/07 05:27:40;;;;;;;20.60;19.60;;;11.20;79.50;;;;;;5094956;28;20538;-73
2022/04/07 05:30:12;;;;;;;21.00;20.00;;;11.20;80.10;;;;;;5094262;28;20570;-73
2022/04/07 05:32:40;;;;;;;20.93;19.73;;;11.10;79.70;;;;;;5095024;28;20473;-73
2022/04/07 05:35:09;;;;;;;21.97;20.87;;;11.10;79.70;;;;;;5094817;28;20934;-73
2022/04/07 05:37:36;;;;;;;22.27;21.17;;;11.20;79.70;;;;;;5094520;28;20460;-73
2022/04/07 05:40:03;;;;;;;20.93;19.93;;;11.30;79.40;;;;;;5094195;28;20453;-73
2022/04/07 05:42:30;;;;;;;22.07;20.97;;;11.40;79.00;;;;;;5094516;28;20470;-73
2022/04/07 05:44:58;;;;;;;21.20;20.00;;;11.50;78.50;;;;;;5094585;28;20453;-73
2022/04/07 05:47:25;;;;;;;21.07;20.07;;;11.50;78.40;;;;;;5094519;28;20453;-73
2022/04/07 05:49:54;;;;;;;22.40;21.10;;;11.40;78.20;;;;;;5093844;28;20482;-73
2022/04/07 05:52:21;;;;;;;21.90;20.80;;;11.40;78.40;;;;;;5094348;28;20466;-73
2022/04/07 05:54:48;;;;;;;21.30;20.20;;;11.50;77.90;;;;;;5094392;28;20465;-73
2022/04/07 05:57:15;;;;;;;22.00;20.80;;;11.60;77.20;;;;;;5094599;28;20519;-73
2022/04/07 05:59:42;;;;;;;24.30;23.00;;;11.60;77.00;;;;;;5093751;28;20446;-73
2022/04/07 06:02:10;;;;;;;22.47;21.37;;;11.80;76.50;;;;;;5093366;28;20528;-73
2022/04/07 06:04:39;;;;;;;22.67;21.37;;;11.90;76.20;;;;;;5094010;28;20534;-73
2022/04/07 06:07:06;;;;;;;22.77;21.57;;;12.10;74.90;;;;;;5093834;28;20527;-73
2022/04/07 06:09:34;;;;;;;22.30;21.20;;;12.20;74.40;;;;;;5093326;28;20491;-73
2022/04/07 06:12:01;;;;;;;23.13;21.93;;;12.20;73.90;;;;;;5094175;28;20863;-73
2022/04/07 06:14:28;;;;;;;21.60;20.50;;;12.30;73.70;;;;;;5093912;28;20457;-73
2022/04/07 06:16:55;;;;;;;21.23;20.23;;;12.30;73.90;;;;;;5094052;28;20456;-73
2022/04/07 06:19:23;;;;;;;21.13;20.07;;;12.40;73.40;;;;;;5093229;28;20977;-73
2022/04/07 06:21:50;;;;;;;21.17;20.03;;;12.50;72.60;;;;;;5093905;28;20458;-73
2022/04/07 06:24:16;;;;;;;21.97;20.87;;;12.60;72.30;;;;;;5093844;28;20476;-73
2022/04/07 06:26:43;;;;;;;22.33;21.03;;;12.60;72.40;;;;;;5093814;28;20446;-73
2022/04/07 06:29:10;;;;;;;22.70;21.60;;;12.60;72.10;;;;;;5093106;28;20473;-74
2022/04/07 06:31:37;;;;;;;22.93;21.73;;;12.70;71.60;;;;;;5093519;28;20446;-74
2022/04/07 06:34:04;;;;;;;22.90;21.70;;;12.70;71.20;;;;;;5093439;28;20474;-73
2022/04/07 06:36:33;;;;;;;22.07;20.97;;;12.70;71.20;;;;;;5093627;28;20492;-73
2022/04/07 06:39:00;;;;;;;23.73;22.50;;;12.60;71.40;;;;;;5093685;28;20823;-73
2022/04/07 06:41:27;;;;;;;22.30;21.20;;;12.70;72.00;;;;;;5093596;28;20461;-73
2022/04/07 06:43:54;;;;;;;24.47;23.07;;;12.70;72.00;;;;;;5093384;28;20560;-74
2022/04/07 06:46:20;;;;;;;22.63;21.43;;;12.70;71.50;;;;;;5093151;28;20462;-74
2022/04/07 06:48:47;;;;;;;23.13;21.73;;;12.70;71.40;;;;;;5093349;28;20567;-73
2022/04/07 06:51:14;;;;;;;25.63;24.33;;;12.70;71.40;;;;;;5092766;28;20485;-73
2022/04/07 06:53:43;;;;;;;23.43;22.23;;;12.70;71.60;;;;;;5093168;28;20477;-73
2022/04/07 06:56:10;;;;;;;23.10;21.90;;;12.80;71.10;;;;;;5093730;28;20465;-73
2022/04/07 06:58:37;;;;;;;22.33;21.20;;;12.70;71.10;;;;;;5093000;28;20462;-74
2022/04/07 07:01:04;;;;;;;23.83;22.63;;;12.60;71.40;;;;;;5092526;28;20481;-73
2022/04/07 07:03:31;;;;;;;24.53;23.13;;;12.50;71.40;;;;;;5093272;28;20499;-73
2022/04/07 07:05:58;;;;;;;27.00;25.80;;;12.60;71.20;;;;;;5092469;28;21087;-73
2022/04/07 07:08:25;;;;;;;22.40;21.30;;;12.60;71.20;;;;;;5093111;28;20817;-74
2022/04/07 07:10:54;;;;;;;23.83;22.63;;;12.80;71.10;;;;;;5092082;28;20845;-73
2022/04/07 07:13:23;;;;;;;24.83;23.63;;;12.90;70.70;;;;;;5092586;28;20833;-74
2022/04/07 07:15:50;;;;;;;24.63;23.37;;;13.00;70.60;;;;;;5092645;28;21007;-73
2022/04/07 07:18:18;;;;;;;24.50;23.20;;;13.10;70.30;;;;;;5092779;28;20960;-73
2022/04/07 07:20:45;;;;;;;23.07;21.93;;;13.20;70.10;;;;;;5092340;28;20445;-73
2022/04/07 07:23:12;;;;;;;23.70;22.50;;;13.40;69.10;;;;;;5092577;28;20484;-73
2022/04/07 07:25:39;;;;;;;24.13;22.93;;;13.20;69.50;;;;;;5092721;28;20449;-74
2022/04/07 07:28:09;;;;;;;22.87;21.77;;;13.30;69.40;;;;;;5092495;28;20449;-73
2022/04/07 07:30:36;;;;;;;26.80;25.60;;;13.40;69.30;;;;;;5092121;28;20540;-73
2022/04/07 07:33:03;;;;;;;22.80;21.70;;;13.50;68.30;;;;;;5092338;28;20534;-73
2022/04/07 07:35:30;;;;;;;22.80;21.70;;;13.60;67.90;;;;;;5092631;28;20544;-73
2022/04/07 07:37:58;;;;;;;23.70;22.50;;;13.70;67.80;;;;;;5092407;28;20453;-73
2022/04/07 07:40:27;;;;;;;23.60;22.40;;;13.90;67.30;;;;;;5091947;28;20480;-74
2022/04/07 07:42:56;;;;;;;23.97;22.77;;;13.90;66.70;;;;;;5092328;28;20473;-74
2022/04/07 07:45:25;;;;;;;23.37;22.27;;;14.00;66.80;;;;;;5092593;28;20449;-74
2022/04/07 07:47:53;;;;;;;23.67;22.47;;;14.00;66.70;;;;;;5092245;28;20457;-74
2022/04/07 07:50:20;;;;;;;23.80;22.60;;;14.10;66.50;;;;;;5091596;28;20473;-74
2022/04/07 07:52:46;;;;;;;23.93;22.70;;;14.30;66.40;;;;;;5092254;28;20501;-74
2022/04/07 07:55:13;;;;;;;23.50;22.30;;;14.50;65.90;;;;;;5091990;28;20938;-74
2022/04/07 07:57:41;;;;;;;24.17;22.97;;;14.40;65.90;;;;;;5092340;28;20454;-74
2022/04/07 08:00:14;;;;;;;23.90;22.70;;;14.60;66.30;;;;;;5091618;28;20453;-73
2022/04/07 08:02:42;;;;;;;23.90;22.57;;;14.60;65.50;;;;;;5092225;28;20477;-73
2022/04/07 08:05:10;;;;;;;23.73;22.53;;;14.60;64.90;;;;;;5092091;28;20457;-74
2022/04/07 08:07:39;;;;;;;25.40;23.90;;;14.50;65.50;;;;;;5091712;28;20588;-74
2022/04/07 08:10:07;;;;;;;23.33;22.13;;;14.50;65.60;;;;;;5091379;28;20473;-73
2022/04/07 08:12:35;;;;;;;25.77;24.37;;;14.30;65.70;;;;;;5091829;28;20469;-74
2022/04/07 08:15:02;;;;;;;23.70;22.50;;;14.30;65.90;;;;;;5092103;28;20453;-74
2022/04/07 08:17:29;;;;;;;25.27;23.87;;;14.50;65.60;;;;;;5092021;28;20865;-74
2022/04/07 08:19:57;;;;;;;25.20;23.90;;;14.50;65.60;;;;;;5091295;28;20452;-73
2022/04/07 08:22:24;;;;;;;25.70;24.30;;;14.60;65.10;;;;;;5091858;28;20469;-73
2022/04/07 08:24:51;;;;;;;24.43;23.13;;;14.70;64.90;;;;;;5093992;28;21019;-73
2022/04/07 08:27:18;;;;;;;25.20;23.80;;;14.70;64.90;;;;;;5095931;28;20536;-74
2022/04/07 08:29:45;;;;;;;24.97;23.67;;;14.80;64.30;;;;;;5095549;28;20505;-74
2022/04/07 08:32:11;;;;;;;26.20;24.77;;;14.90;64.10;;;;;;5095849;28;20512;-74
2022/04/07 08:34:38;;;;;;;25.57;24.17;;;15.00;64.00;;;;;;5095773;28;20485;-74
2022/04/07 08:37:07;;;;;;;27.33;25.23;;;15.00;64.40;;;;;;5095783;28;20822;-74
2022/04/07 08:39:33;;;;;;;25.80;24.30;;;15.00;64.40;;;;;;5095266;28;20485;-74
2022/04/07 08:42:01;;;;;;;24.90;23.50;;;15.00;64.20;;;;;;5095867;28;20529;-74
2022/04/07 08:44:31;;;;;;;27.70;26.30;;;15.00;64.60;;;;;;5095697;28;20453;-74
2022/04/07 08:46:59;;;;;;;26.00;24.50;;;15.10;64.40;;;;;;5095510;28;20853;-73
2022/04/07 08:49:28;;;;;;;25.90;24.40;;;15.20;64.20;;;;;;5094772;28;20455;-73
2022/04/07 08:51:55;;;;;;;25.00;23.60;;;15.30;63.50;;;;;;5095643;28;20464;-74
2022/04/07 08:54:24;;;;;;;25.40;23.97;;;15.40;63.40;;;;;;5095675;28;20457;-74
2022/04/07 08:56:51;;;;;;;25.00;23.60;;;15.50;62.80;;;;;;5095524;28;20449;-74
2022/04/07 08:59:18;;;;;;;25.10;23.70;;;15.50;62.90;;;;;;5094804;28;20457;-74
2022/04/07 09:01:48;;;;;;;25.33;24.03;;;15.50;62.90;;;;;;5095410;28;20445;-74
2022/04/07 09:04:15;;;;;;;26.00;24.60;;;15.50;62.80;;;;;;5095367;28;20469;-74
2022/04/07 09:06:43;;;;;;;25.33;24.03;;;15.40;62.10;;;;;;5094922;28;20471;-74
2022/04/07 09:09:11;;;;;;;24.60;23.20;;;15.20;62.30;;;;;;5094972;28;20457;-74
2022/04/07 09:11:40;;;;;;;25.80;24.30;;;15.10;62.80;;;;;;5094862;28;20473;-73
2022/04/07 09:14:08;;;;;;;27.27;25.97;;;15.20;62.70;;;;;;5095180;28;20965;-74
2022/04/07 09:16:37;;;;;;;24.67;23.37;;;15.30;62.40;;;;;;5094942;28;20449;-73
2022/04/07 09:19:05;;;;;;;24.67;23.37;;;15.20;62.40;;;;;;5095087;28;20461;-74
2022/04/07 09:21:34;;;;;;;24.43;23.17;;;15.10;62.50;;;;;;5094585;28;20441;-74
2022/04/07 09:24:05;;;;;;;25.07;23.77;;;15.20;62.70;;;;;;5095111;28;20470;-74
2022/04/07 09:26:33;;;;;;;25.10;23.80;;;15.10;62.40;;;;;;5094859;28;20465;-73
2022/04/07 09:29:07;;;;;;;24.93;23.63;;;15.10;62.30;;;;;;5094724;28;20840;-73
2022/04/07 09:31:38;;;;;;;26.43;24.80;;;15.10;62.70;;;;;;5094880;28;20484;-74
2022/04/07 09:34:05;;;;;;;26.00;24.30;;;15.00;62.90;;;;;;5094828;28;20573;-73
2022/04/07 09:36:32;;;;;;;25.83;24.43;;;15.00;63.60;;;;;;5093416;28;20445;-74
2022/04/07 09:39:00;;;;;;;24.70;23.30;;;15.00;63.20;;;;;;5094685;28;20875;-74
2022/04/07 09:41:29;;;;;;;25.63;24.13;;;15.00;63.70;;;;;;5094219;28;20457;-74
2022/04/07 09:43:59;;;;;;;24.87;23.57;;;14.90;64.30;;;;;;5094701;28;20574;-73
2022/04/07 09:46:32;;;;;;;24.97;23.67;;;14.90;65.60;;;;;;5094610;28;20457;-73
2022/04/07 09:49:01;;;;;;;24.97;23.67;;;15.00;66.10;;;;;;5094690;28;20453;-73
2022/04/07 09:51:29;;;;;;;25.07;23.70;;;14.90;66.80;;;;;;5094076;28;20568;-74
2022/04/07 09:53:57;;;;;;;25.53;24.13;;;14.80;66.00;;;;;;5094191;28;20527;-74
2022/04/07 09:56:27;;;;;;;24.43;23.13;;;14.80;65.60;;;;;;5094272;28;20938;-74
2022/04/07 09:58:55;;;;;;;26.20;24.80;;;15.00;65.20;;;;;;5093976;28;20943;-74
2022/04/07 10:01:22;;;;;;;25.77;24.47;;;15.20;64.90;;;;;;5093832;28;20449;-74
2022/04/07 10:03:52;;;;;;;24.30;23.00;;;15.60;63.90;;;;;;5093995;28;21017;-72
2022/04/07 10:06:19;;;;;;;25.97;24.53;;;15.70;63.50;;;;;;5093929;28;20480;-73
2022/04/07 10:08:50;;;;;;;25.17;23.67;;;15.80;62.90;;;;;;5094191;28;20449;-73
2022/04/07 10:11:17;;;;;;;27.20;25.80;;;16.00;62.70;;;;;;5093402;28;20487;-73
2022/04/07 10:13:45;;;;;;;25.63;24.23;;;16.30;62.30;;;;;;5094005;28;20458;-73
2022/04/07 10:16:12;;;;;;;26.43;25.13;;;16.40;61.30;;;;;;5094049;28;20465;-73
2022/04/07 10:18:47;;;;;;;24.77;23.40;;;16.50;60.70;;;;;;5093686;28;20858;-73
2022/04/07 10:21:31;;;;;;;24.47;23.17;;;16.40;60.20;;;;;;5093613;28;20438;-73
2022/04/07 10:24:16;;;;;;;24.40;23.10;;;16.40;60.20;;;;;;5093844;28;20466;-73
2022/04/07 10:26:46;;;;;;;24.47;23.00;;;16.60;60.20;;;;;;5094057;28;20456;-73
2022/04/07 10:29:21;;;;;;;24.70;23.33;;;16.70;59.80;;;;;;5093994;28;20480;-73
2022/04/07 10:32:21;;;;;;;24.30;22.80;;;16.80;59.30;;;;;;5093799;28;20484;-73
2022/04/07 10:34:56;;;;;;;24.73;23.43;;;16.90;59.00;;;;;;5094233;28;20488;-73
2022/04/07 10:37:40;;;;;;;25.10;23.70;;;16.70;59.10;;;;;;5094224;28;20863;-73
2022/04/07 10:40:39;;;;;;;24.10;22.87;;;16.50;59.90;;;;;;5093000;28;20453;-73
2022/04/07 10:43:13;;;;;;;24.63;23.33;;;16.40;60.20;;;;;;5093553;28;20527;-73
2022/04/07 10:45:41;;;;;;;25.07;23.77;;;16.40;60.30;;;;;;5093757;28;20457;-73
2022/04/07 10:48:25;;;;;;;23.80;22.60;;;16.40;60.50;;;;;;5093412;28;20468;-73
2022/04/07 10:50:54;;;;;;;24.03;22.73;;;16.40;60.90;;;;;;5093076;28;20823;-73
2022/04/07 10:53:25;;;;;;;24.43;23.13;;;16.50;60.60;;;;;;5093557;28;20479;-73
2022/04/07 10:56:01;;;;;;;25.80;24.43;;;16.50;60.40;;;;;;5093532;28;20450;-72
2022/04/07 10:58:48;;;;;;;24.70;23.10;;;16.70;60.50;;;;;;5093278;28;20453;-73
2022/04/07 11:01:51;;;;;;;28.53;27.23;;;16.70;59.90;;;;;;5093240;28;20442;-73
2022/04/07 11:04:35;;;;;;;25.20;23.93;;;16.60;60.30;;;;;;5093280;28;20477;-73
2022/04/07 11:07:18;;;;;;;24.90;23.60;;;16.60;60.30;;;;;;5093307;28;20537;-73
2022/04/07 11:10:11;;;;;;;23.50;22.30;;;16.40;60.50;;;;;;5092842;28;20523;-73
2022/04/07 11:12:39;;;;;;;25.40;24.07;;;16.30;61.10;;;;;;5093155;28;20475;-73
2022/04/07 11:15:45;;;;;;;24.17;22.87;;;16.20;61.20;;;;;;5093199;28;20445;-73
2022/04/07 11:18:48;;;;;;;25.00;23.53;;;16.30;61.10;;;;;;5093107;28;20450;-73
2022/04/07 11:21:15;;;;;;;24.87;23.47;;;16.60;60.40;;;;;;5068272;28;20532;-73
2022/04/07 11:23:44;;;;;;;24.27;23.07;;;16.80;59.50;;;;;;5092645;28;21052;-73
2022/04/07 11:26:21;;;;;;;26.33;24.93;;;16.70;59.30;;;;;;5093118;28;20517;-73
2022/04/07 11:29:06;;;;;;;24.03;22.83;;;16.60;59.90;;;;;;5093398;28;20823;-73
2022/04/07 11:31:48;;;;;;;25.33;24.03;;;16.70;59.80;;;;;;5091652;28;20837;-73
2022/04/07 11:34:49;;;;;;;25.10;23.70;;;16.70;59.70;;;;;;5093007;28;20478;-73
2022/04/07 11:37:16;;;;;;;24.13;22.93;;;16.80;59.60;;;;;;5092555;28;20449;-73
2022/04/07 11:39:46;;;;;;;24.80;23.43;;;16.80;59.20;;;;;;5092106;28;20988;-73
2022/04/07 11:42:15;;;;;;;23.20;21.90;;;16.80;59.30;;;;;;5092250;28;20576;-73
2022/04/07 11:44:43;;;;;;;24.20;22.90;;;16.80;59.60;;;;;;5092569;28;20449;-73
2022/04/07 11:47:22;;;;;;;24.00;22.80;;;16.80;59.80;;;;;;5092294;28;20560;-73
2022/04/07 11:49:49;;;;;;;23.87;22.57;;;16.70;59.90;;;;;;5091877;28;20457;-73
2022/04/07 11:52:16;;;;;;;23.13;21.90;;;16.60;60.40;;;;;;5092182;28;20477;-73
2022/04/07 11:54:43;;;;;;;22.50;21.40;;;16.60;60.70;;;;;;5092195;28;20846;-73
2022/04/07 11:57:11;;;;;;;25.27;23.33;;;16.80;60.70;;;;;;5092378;28;20871;-73
2022/04/07 11:59:39;;;;;;;23.20;22.00;;;16.90;60.30;;;;;;5090690;28;20926;-73
2022/04/07 12:02:08;;;;;;;24.67;23.43;;;16.90;60.30;;;;;;5092379;28;20460;-73
2022/04/07 12:04:35;;;;;;;25.07;23.80;;;16.60;60.70;;;;;;5092076;28;20485;-73
2022/04/07 12:07:02;;;;;;;23.77;22.47;;;16.60;61.00;;;;;;5091812;28;20503;-73
2022/04/07 12:09:29;;;;;;;23.47;22.17;;;16.70;60.70;;;;;;5091746;28;20510;-73
2022/04/07 12:11:56;;;;;;;23.13;21.90;;;16.50;61.10;;;;;;5091992;28;20480;-73
2022/04/07 12:14:25;;;;;;;24.00;22.70;;;16.60;60.90;;;;;;5092160;28;20873;-73
2022/04/07 12:16:54;;;;;;;23.50;22.30;;;16.60;61.10;;;;;;5092141;28;20454;-73
2022/04/07 12:19:21;;;;;;;24.30;23.10;;;16.60;61.30;;;;;;5091527;28;20581;-73
2022/04/07 12:21:55;;;;;;;22.53;21.43;;;16.50;61.40;;;;;;5091886;28;20450;-73
2022/04/07 12:24:23;;;;;;;23.03;21.83;;;16.50;61.40;;;;;;5092262;28;20456;-73
2022/04/07 12:26:53;;;;;;;22.50;21.20;;;16.60;61.90;;;;;;5092000;28;20540;-73
2022/04/07 12:29:22;;;;;;;23.37;22.20;;;16.40;62.00;;;;;;5091479;28;20450;-73
2022/04/07 12:32:00;;;;;;;23.43;22.23;;;16.10;63.00;;;;;;5092252;28;20473;-73
2022/04/07 12:34:27;;;;;;;23.40;22.20;;;16.10;63.20;;;;;;5092782;28;20555;-73
2022/04/07 12:36:55;;;;;;;24.30;22.20;;;16.10;63.50;;;;;;5093239;28;20460;-73